Time;durP1;ratioP1;P1;durP2;ratioP2;P2;SDS_P1;SDS_P2;PMS_P1;PMS_P2;Temp;Humidity;BMP_temperature;BMP_pressure;BME280_temperature;BME280_humidity;BME280_pressure;Samples;Min_cycle;Max_cycle;Signal;HPM_P1;HPM_P2
2023/05/22 00:01:43;;;;;;;30.30;27.33;;;19.50;99.90;;;;;;5135012;27;20453;-87
2023/05/22 00:04:12;;;;;;;29.33;26.25;;;19.50;99.90;;;;;;5135199;27;20556;-87
2023/05/22 00:06:41;;;;;;;29.90;27.05;;;19.50;99.90;;;;;;5135444;27;20035;-87
2023/05/22 00:09:06;;;;;;;30.30;27.25;;;19.40;99.90;;;;;;5135250;27;20043;-87
2023/05/22 00:11:33;;;;;;;29.55;26.70;;;19.50;99.90;;;;;;5134873;27;20031;-87
2023/05/22 00:13:59;;;;;;;30.27;27.48;;;19.50;99.90;;;;;;5134992;27;20539;-87
2023/05/22 00:16:24;;;;;;;30.00;27.10;;;19.50;99.90;;;;;;5135041;27;20035;-87
2023/05/22 00:18:50;;;;;;;29.58;26.38;;;19.50;99.90;;;;;;5134810;27;20415;-87
2023/05/22 00:21:16;;;;;;;30.95;27.98;;;19.50;99.90;;;;;;5134852;27;20031;-87
2023/05/22 00:23:41;;;;;;;29.92;26.92;;;19.50;99.90;;;;;;5134984;27;20123;-87
2023/05/22 00:26:07;;;;;;;28.88;26.08;;;19.50;99.90;;;;;;5134978;27;20520;-87
2023/05/22 00:28:33;;;;;;;29.70;26.80;;;19.50;99.90;;;;;;5134770;27;20031;-87
2023/05/22 00:30:58;;;;;;;29.30;26.40;;;19.40;99.90;;;;;;5134460;27;20046;-87
2023/05/22 00:33:24;;;;;;;31.40;28.17;;;19.40;99.90;;;;;;5134595;27;20066;-87
2023/05/22 00:35:50;;;;;;;31.75;28.65;;;19.40;99.90;;;;;;5134923;27;20575;-87
2023/05/22 00:38:31;;;;;;;31.42;28.30;;;19.40;99.90;;;;;;5134536;27;20047;-87
2023/05/22 00:40:57;;;;;;;30.17;27.38;;;19.40;99.90;;;;;;5115986;27;20387;-87
2023/05/22 00:43:23;;;;;;;32.35;29.35;;;19.40;99.90;;;;;;5116036;27;20404;-87
2023/05/22 00:45:49;;;;;;;31.73;28.63;;;19.40;99.90;;;;;;5133985;27;20046;-87
2023/05/22 00:48:15;;;;;;;29.38;26.73;;;19.40;99.90;;;;;;5134303;27;20039;-87
2023/05/22 00:50:41;;;;;;;31.52;28.42;;;19.40;99.90;;;;;;5134288;27;20042;-87
2023/05/22 00:53:07;;;;;;;31.98;28.77;;;19.40;99.90;;;;;;5116150;27;20066;-87
2023/05/22 00:55:33;;;;;;;31.92;28.90;;;19.40;99.90;;;;;;5134395;27;20488;-87
2023/05/22 00:58:00;;;;;;;32.17;29.17;;;19.40;99.90;;;;;;5134201;27;20047;-87
2023/05/22 01:00:26;;;;;;;33.25;30.15;;;19.40;99.90;;;;;;5133780;27;20043;-87
2023/05/22 01:02:52;;;;;;;33.28;30.27;;;19.40;99.90;;;;;;5134083;27;20123;-87
2023/05/22 01:05:18;;;;;;;31.63;28.48;;;19.30;99.90;;;;;;5134343;27;20527;-87
2023/05/22 01:07:46;;;;;;;31.58;28.45;;;19.30;99.90;;;;;;5134119;27;20106;-87
2023/05/22 01:10:12;;;;;;;33.70;30.50;;;19.30;99.90;;;;;;5133669;27;20062;-87
2023/05/22 01:13:00;;;;;;;32.53;29.55;;;19.30;99.90;;;;;;5134032;27;20043;-87
2023/05/22 01:15:47;;;;;;;33.05;30.02;;;19.30;99.90;;;;;;5133748;27;20042;-87
2023/05/22 01:18:28;;;;;;;32.92;29.80;;;19.30;99.90;;;;;;5133710;27;20070;-87
2023/05/22 01:21:12;;;;;;;29.88;27.25;;;19.30;99.90;;;;;;5133639;27;20103;-87
2023/05/22 01:24:00;;;;;;;29.23;26.42;;;19.20;99.90;;;;;;5133841;27;20067;-87
2023/05/22 01:27:03;;;;;;;33.38;30.27;;;19.10;99.90;;;;;;5133697;27;20039;-87
2023/05/22 01:29:45;;;;;;;;;;;19.10;99.90;;;;;;5133816;27;20081;-87
2023/05/22 01:32:15;;;;;;;31.10;28.20;;;18.90;99.90;;;;;;5133543;27;20433;-87
2023/05/22 01:34:43;;;;;;;31.35;28.08;;;18.90;99.90;;;;;;5133740;27;20035;-87
2023/05/22 01:37:10;;;;;;;31.23;28.17;;;18.90;99.90;;;;;;5133447;27;20035;-87
2023/05/22 01:39:37;;;;;;;32.00;29.02;;;18.90;99.90;;;;;;5114603;27;20557;-87
2023/05/22 01:42:03;;;;;;;31.45;28.48;;;18.90;99.90;;;;;;5133503;27;20046;-87
2023/05/22 01:44:29;;;;;;;32.90;29.85;;;18.90;99.90;;;;;;5133410;27;20035;-87
2023/05/22 01:46:59;;;;;;;34.13;31.00;;;18.90;99.90;;;;;;5133376;27;20401;-87
2023/05/22 01:49:26;;;;;;;34.97;31.67;;;18.80;99.90;;;;;;5133097;27;20051;-87
2023/05/22 01:52:02;;;;;;;33.38;30.38;;;18.80;99.90;;;;;;5133005;27;20520;-88
2023/05/22 01:54:30;;;;;;;31.45;28.65;;;18.80;99.90;;;;;;5133404;27;20039;-87
2023/05/22 01:57:08;;;;;;;31.70;28.60;;;18.80;99.90;;;;;;5132511;27;20047;-87
2023/05/22 01:59:49;;;;;;;31.23;28.35;;;18.70;99.90;;;;;;5132770;27;20050;-87
2023/05/22 02:02:18;;;;;;;32.05;28.98;;;18.70;99.90;;;;;;5132926;27;20126;-87
2023/05/22 02:04:50;;;;;;;33.80;30.52;;;18.70;99.90;;;;;;5133035;27;20034;-87
2023/05/22 02:07:19;;;;;;;34.95;31.70;;;18.70;99.90;;;;;;5133094;27;20039;-87
2023/05/22 02:09:46;;;;;;;35.17;31.95;;;18.70;99.90;;;;;;5132461;27;20737;-86
2023/05/22 02:12:12;;;;;;;34.38;31.20;;;18.70;99.90;;;;;;5132908;27;20058;-86
2023/05/22 02:14:38;;;;;;;32.97;30.02;;;18.70;99.90;;;;;;5132617;27;20091;-87
2023/05/22 02:17:04;;;;;;;33.83;30.65;;;18.70;99.90;;;;;;5132835;27;20501;-87
2023/05/22 02:19:32;;;;;;;35.35;31.98;;;18.70;99.90;;;;;;5132554;27;20043;-87
2023/05/22 02:21:58;;;;;;;33.70;30.63;;;18.70;99.90;;;;;;5132726;27;20442;-86
2023/05/22 02:24:24;;;;;;;34.00;30.80;;;18.70;99.90;;;;;;5132742;27;20110;-87
2023/05/22 02:26:50;;;;;;;33.35;30.15;;;18.70;99.90;;;;;;5132578;27;20042;-87
2023/05/22 02:29:15;;;;;;;34.10;30.88;;;18.80;99.90;;;;;;5132580;28;20397;-87
2023/05/22 02:31:41;;;;;;;33.45;30.35;;;18.80;99.90;;;;;;5132619;28;20031;-87
2023/05/22 02:34:07;;;;;;;34.83;31.60;;;18.80;99.90;;;;;;5132668;28;20657;-87
2023/05/22 02:36:32;;;;;;;33.75;30.25;;;18.80;99.90;;;;;;5132707;28;20027;-87
2023/05/22 02:38:58;;;;;;;34.97;31.48;;;18.80;99.90;;;;;;5132600;28;20043;-87
2023/05/22 02:41:24;;;;;;;33.92;30.70;;;18.80;99.90;;;;;;5132178;28;20067;-87
2023/05/22 02:43:50;;;;;;;34.60;31.45;;;18.80;99.90;;;;;;5132675;28;20082;-87
2023/05/22 02:46:15;;;;;;;35.55;32.35;;;18.80;99.90;;;;;;5132724;28;20055;-87
2023/05/22 02:48:41;;;;;;;31.30;28.30;;;18.80;99.90;;;;;;5132448;28;20066;-87
2023/05/22 02:51:07;;;;;;;32.50;29.58;;;18.70;99.90;;;;;;5132292;28;20480;-87
2023/05/22 02:53:34;;;;;;;30.65;27.58;;;18.70;99.90;;;;;;5132484;28;20041;-87
2023/05/22 02:56:00;;;;;;;28.27;25.67;;;18.70;99.90;;;;;;5132330;28;20032;-87
2023/05/22 02:58:25;;;;;;;27.08;24.60;;;18.60;99.90;;;;;;5113989;28;20046;-87
2023/05/22 03:00:52;;;;;;;27.40;24.90;;;18.60;99.90;;;;;;5096757;28;20035;-87
2023/05/22 03:03:18;;;;;;;29.02;26.35;;;18.50;99.90;;;;;;5132462;28;20040;-87
2023/05/22 03:05:44;;;;;;;30.67;27.77;;;18.50;99.90;;;;;;5132453;28;20035;-87
2023/05/22 03:08:10;;;;;;;29.38;26.52;;;18.40;99.90;;;;;;5134274;27;20064;-87
2023/05/22 03:10:37;;;;;;;29.15;26.45;;;18.40;99.90;;;;;;5135811;27;20035;-86
2023/05/22 03:13:02;;;;;;;28.75;26.08;;;18.40;99.90;;;;;;5136512;27;20119;-87
2023/05/22 03:15:28;;;;;;;29.65;26.83;;;18.40;99.90;;;;;;5136284;27;20100;-87
2023/05/22 03:17:54;;;;;;;31.25;28.27;;;18.40;99.90;;;;;;5136067;27;20034;-87
2023/05/22 03:20:19;;;;;;;32.92;30.02;;;18.40;99.90;;;;;;5135850;27;20043;-87
2023/05/22 03:22:45;;;;;;;33.55;30.30;;;18.40;99.90;;;;;;5135972;27;20039;-86
2023/05/22 03:25:11;;;;;;;34.08;30.90;;;18.40;99.90;;;;;;5135919;27;20087;-87
2023/05/22 03:27:38;;;;;;;31.55;28.75;;;18.40;99.90;;;;;;5135903;27;20043;-86
2023/05/22 03:30:05;;;;;;;33.70;30.60;;;18.40;99.90;;;;;;5135652;27;20516;-87
2023/05/22 03:32:30;;;;;;;36.50;33.10;;;18.40;99.90;;;;;;5136002;27;20050;-87
2023/05/22 03:34:57;;;;;;;36.38;32.90;;;18.40;99.90;;;;;;5135770;27;20035;-87
2023/05/22 03:37:22;;;;;;;33.03;29.92;;;18.40;99.90;;;;;;5135768;27;20039;-87
2023/05/22 03:39:48;;;;;;;35.15;31.92;;;18.50;99.90;;;;;;5135366;27;20400;-87
2023/05/22 03:42:15;;;;;;;36.78;33.22;;;18.40;99.90;;;;;;5135889;27;20035;-87
2023/05/22 03:44:40;;;;;;;32.33;29.38;;;18.50;99.90;;;;;;5135766;27;20039;-87
2023/05/22 03:47:06;;;;;;;32.45;29.38;;;18.50;99.90;;;;;;5135659;27;20079;-87
2023/05/22 03:49:32;;;;;;;29.08;26.27;;;18.40;99.90;;;;;;5135231;27;20035;-87
2023/05/22 03:51:57;;;;;;;30.80;27.83;;;18.40;99.90;;;;;;5135159;27;20124;-87
2023/05/22 03:54:23;;;;;;;33.00;30.10;;;18.40;99.90;;;;;;5135365;27;20054;-87
2023/05/22 03:56:49;;;;;;;31.02;28.23;;;18.40;99.90;;;;;;5099993;27;20047;-87
2023/05/22 03:59:15;;;;;;;34.20;31.10;;;18.30;99.90;;;;;;5135394;27;20035;-87
2023/05/22 04:01:40;;;;;;;30.38;27.50;;;18.30;99.90;;;;;;5135031;27;20438;-87
2023/05/22 04:04:08;;;;;;;33.08;29.88;;;18.30;99.90;;;;;;5135327;27;20493;-87
2023/05/22 04:06:41;;;;;;;32.78;29.88;;;18.30;99.90;;;;;;5135203;27;20500;-87
2023/05/22 04:09:10;;;;;;;31.50;28.70;;;18.30;99.90;;;;;;5135378;27;20042;-87
2023/05/22 04:11:38;;;;;;;31.55;28.58;;;18.30;99.90;;;;;;5134829;27;20040;-87
2023/05/22 04:14:04;;;;;;;32.45;29.42;;;18.30;99.90;;;;;;5135278;27;20035;-87
2023/05/22 04:16:30;;;;;;;33.55;30.35;;;18.30;99.90;;;;;;5135034;27;20516;-87
2023/05/22 04:18:56;;;;;;;31.45;28.65;;;18.20;99.90;;;;;;5134209;27;20035;-87
2023/05/22 04:21:23;;;;;;;32.88;29.95;;;18.30;99.90;;;;;;5134463;27;20054;-87
2023/05/22 04:23:49;;;;;;;31.77;28.77;;;18.30;99.90;;;;;;5135027;27;20054;-87
2023/05/22 04:26:19;;;;;;;31.67;28.58;;;18.30;99.90;;;;;;5134943;27;20035;-86
2023/05/22 04:28:46;;;;;;;32.92;29.90;;;18.30;99.90;;;;;;5134955;27;20395;-86
2023/05/22 04:31:14;;;;;;;33.10;30.00;;;18.20;99.90;;;;;;5134619;27;20404;-87
2023/05/22 04:33:39;;;;;;;32.33;29.33;;;18.30;99.90;;;;;;5134694;27;20045;-87
2023/05/22 04:36:07;;;;;;;32.92;29.85;;;18.30;99.90;;;;;;5134596;27;20121;-87
2023/05/22 04:38:35;;;;;;;34.03;30.77;;;18.30;99.90;;;;;;5134554;27;20043;-87
2023/05/22 04:41:02;;;;;;;32.38;29.52;;;18.30;99.90;;;;;;5134320;27;20035;-87
2023/05/22 04:43:28;;;;;;;32.55;29.60;;;18.30;99.90;;;;;;5134494;27;20488;-87
2023/05/22 04:45:55;;;;;;;34.60;31.25;;;18.30;99.90;;;;;;5134521;27;20040;-87
2023/05/22 04:48:21;;;;;;;34.03;30.73;;;18.40;99.90;;;;;;5134291;27;20054;-86
2023/05/22 04:50:48;;;;;;;26.23;20.17;;;18.40;99.90;;;;;;5115716;27;20043;-87
2023/05/22 04:53:14;;;;;;;32.70;29.55;;;18.40;99.90;;;;;;5134314;27;20047;-87
2023/05/22 04:55:40;;;;;;;33.85;30.73;;;18.40;99.90;;;;;;5134278;27;20039;-87
2023/05/22 04:58:06;;;;;;;31.92;29.02;;;18.40;99.90;;;;;;5134260;27;20450;-87
2023/05/22 05:00:32;;;;;;;31.77;28.88;;;18.40;99.90;;;;;;5133994;27;20469;-87
2023/05/22 05:02:59;;;;;;;33.53;30.38;;;18.40;99.90;;;;;;5133951;27;20066;-87
2023/05/22 05:05:24;;;;;;;33.30;30.35;;;18.50;99.90;;;;;;5134155;27;20039;-87
2023/05/22 05:07:50;;;;;;;32.95;29.67;;;18.50;99.90;;;;;;5134103;27;20036;-87
2023/05/22 05:10:16;;;;;;;32.90;29.90;;;18.50;99.90;;;;;;5133688;27;20074;-87
2023/05/22 05:12:42;;;;;;;30.80;28.10;;;18.50;99.90;;;;;;5134072;27;20039;-87
2023/05/22 05:15:08;;;;;;;31.75;28.80;;;18.50;99.90;;;;;;5133069;27;20058;-87
2023/05/22 05:17:34;;;;;;;31.88;29.00;;;18.50;99.90;;;;;;5133880;27;20507;-87
2023/05/22 05:20:00;;;;;;;30.92;28.05;;;18.50;99.90;;;;;;5133608;27;20035;-87
2023/05/22 05:22:25;;;;;;;31.25;28.45;;;18.60;99.90;;;;;;5133659;27;20404;-87
2023/05/22 05:24:51;;;;;;;29.73;27.00;;;18.50;99.90;;;;;;5133591;27;20843;-87
2023/05/22 05:27:16;;;;;;;29.88;27.23;;;18.60;99.90;;;;;;5133684;27;20035;-87
2023/05/22 05:29:42;;;;;;;29.45;26.75;;;18.60;99.90;;;;;;5133449;27;20067;-87
2023/05/22 05:32:10;;;;;;;29.70;26.88;;;18.60;99.90;;;;;;5132647;27;20042;-88
2023/05/22 05:34:35;;;;;;;29.80;27.10;;;18.60;99.90;;;;;;5115135;27;20448;-87
2023/05/22 05:37:01;;;;;;;30.92;28.13;;;18.70;99.90;;;;;;5133431;27;20076;-87
2023/05/22 05:39:27;;;;;;;29.50;26.67;;;18.70;99.90;;;;;;5133121;27;20614;-87
2023/05/22 05:41:52;;;;;;;29.88;26.92;;;18.70;99.90;;;;;;5133451;27;20488;-87
2023/05/22 05:44:18;;;;;;;27.60;25.10;;;18.70;99.90;;;;;;5133363;27;20049;-87
2023/05/22 05:46:44;;;;;;;28.08;25.30;;;18.70;99.90;;;;;;5133267;27;20076;-87
2023/05/22 05:49:10;;;;;;;26.55;24.05;;;18.70;99.90;;;;;;5133243;27;20464;-87
2023/05/22 05:51:38;;;;;;;28.25;25.75;;;18.70;99.90;;;;;;5132952;27;20035;-87
2023/05/22 05:54:04;;;;;;;28.13;25.58;;;18.80;99.90;;;;;;5133116;27;20031;-87
2023/05/22 05:56:30;;;;;;;27.75;25.25;;;18.80;99.90;;;;;;5133365;27;20027;-87
2023/05/22 05:58:56;;;;;;;26.65;24.15;;;18.70;99.90;;;;;;5097632;27;20083;-88
2023/05/22 06:01:23;;;;;;;27.25;24.70;;;18.80;99.90;;;;;;5132868;27;20039;-88
2023/05/22 06:03:50;;;;;;;28.13;25.42;;;18.80;99.90;;;;;;5132203;27;20050;-87
2023/05/22 06:06:16;;;;;;;26.77;24.27;;;18.80;99.90;;;;;;5123361;27;20489;-87
2023/05/22 06:08:42;;;;;;;27.67;25.17;;;18.80;99.90;;;;;;5121448;27;20454;-87
2023/05/22 06:11:08;;;;;;;27.17;24.63;;;18.90;99.90;;;;;;5119751;27;20036;-87
2023/05/22 06:13:34;;;;;;;27.63;24.92;;;18.90;99.90;;;;;;5129678;27;20046;-87
2023/05/22 06:16:00;;;;;;;26.10;23.73;;;18.90;99.90;;;;;;5132716;27;20588;-86
2023/05/22 06:18:26;;;;;;;26.67;24.27;;;18.90;99.90;;;;;;5114551;27;20061;-87
2023/05/22 06:20:52;;;;;;;26.30;23.60;;;18.90;99.90;;;;;;5132549;27;20559;-87
2023/05/22 06:23:18;;;;;;;26.17;23.77;;;18.90;99.90;;;;;;5132805;27;20119;-87
2023/05/22 06:25:44;;;;;;;25.48;23.08;;;19.00;99.90;;;;;;5132813;27;20027;-87
2023/05/22 06:28:10;;;;;;;26.98;24.48;;;19.00;99.90;;;;;;5132763;27;20510;-87
2023/05/22 06:30:35;;;;;;;25.42;23.13;;;19.10;99.90;;;;;;5131019;28;20104;-87
2023/05/22 06:33:02;;;;;;;25.92;23.55;;;19.10;99.90;;;;;;5102380;28;20114;-87
2023/05/22 06:35:28;;;;;;;25.58;23.15;;;19.10;99.90;;;;;;5122175;28;20031;-87
2023/05/22 06:37:54;;;;;;;25.65;23.35;;;19.20;99.90;;;;;;5120774;28;20035;-87
2023/05/22 06:40:20;;;;;;;25.05;22.52;;;19.20;99.90;;;;;;5132428;28;20092;-87
2023/05/22 06:42:46;;;;;;;24.85;22.55;;;19.20;99.90;;;;;;5134014;27;20088;-88
2023/05/22 06:45:12;;;;;;;24.75;22.38;;;19.30;99.90;;;;;;5136894;27;20404;-88
2023/05/22 06:47:37;;;;;;;25.70;23.30;;;19.30;99.90;;;;;;5136584;27;20035;-87
2023/05/22 06:50:03;;;;;;;26.17;23.67;;;19.40;99.90;;;;;;5136713;27;20043;-88
2023/05/22 06:52:30;;;;;;;24.65;22.42;;;19.40;99.90;;;;;;5136829;27;20051;-87
2023/05/22 06:55:03;;;;;;;24.52;22.33;;;19.40;99.90;;;;;;5136714;27;20074;-88
2023/05/22 06:57:29;;;;;;;25.13;22.70;;;19.40;99.90;;;;;;5136600;27;20515;-87
2023/05/22 06:59:55;;;;;;;24.90;22.65;;;19.40;99.90;;;;;;5136240;27;20042;-87
2023/05/22 07:02:20;;;;;;;23.80;21.30;;;19.40;99.90;;;;;;5136455;27;20039;-87
2023/05/22 07:04:46;;;;;;;25.52;22.75;;;19.50;99.90;;;;;;5136497;27;20049;-87
2023/05/22 07:07:12;;;;;;;24.50;22.13;;;19.50;99.90;;;;;;5136567;27;20034;-87
2023/05/22 07:09:37;;;;;;;25.80;23.40;;;19.50;99.90;;;;;;5136172;27;20043;-87
2023/05/22 07:12:04;;;;;;;24.83;22.63;;;19.50;99.90;;;;;;5136264;27;20041;-87
2023/05/22 07:14:30;;;;;;;25.30;23.00;;;19.50;99.90;;;;;;5117890;27;20051;-87
2023/05/22 07:16:55;;;;;;;24.35;22.08;;;19.50;99.90;;;;;;5136235;27;20474;-87
2023/05/22 07:19:21;;;;;;;23.88;21.70;;;19.50;99.90;;;;;;5136270;27;20039;-87
2023/05/22 07:21:46;;;;;;;24.58;22.33;;;19.50;99.90;;;;;;5135894;27;20031;-87
2023/05/22 07:24:12;;;;;;;24.83;22.52;;;19.50;99.90;;;;;;5136521;27;20484;-87
2023/05/22 07:26:40;;;;;;;25.55;23.25;;;19.50;99.90;;;;;;5136174;27;20038;-87
2023/05/22 07:29:05;;;;;;;25.30;23.00;;;19.60;99.90;;;;;;5135984;27;20083;-87
2023/05/22 07:31:33;;;;;;;24.90;22.48;;;19.60;99.90;;;;;;5135646;27;20039;-87
2023/05/22 07:33:59;;;;;;;25.10;22.80;;;19.60;99.90;;;;;;5135893;27;20043;-87
2023/05/22 07:36:24;;;;;;;26.67;24.17;;;19.70;99.90;;;;;;5135819;27;20083;-87
2023/05/22 07:38:50;;;;;;;26.38;23.85;;;19.60;99.90;;;;;;5135802;27;20110;-87
2023/05/22 07:41:16;;;;;;;24.83;22.58;;;19.70;99.90;;;;;;5117130;27;20031;-88
2023/05/22 07:43:42;;;;;;;25.67;23.23;;;19.80;99.90;;;;;;5100169;27;20044;-88
2023/05/22 07:46:09;;;;;;;26.33;23.83;;;19.80;99.90;;;;;;5135601;27;20400;-87
2023/05/22 07:48:35;;;;;;;25.05;22.67;;;19.80;99.90;;;;;;5135737;27;20415;-87
2023/05/22 07:51:02;;;;;;;26.67;24.33;;;19.90;99.90;;;;;;5135445;27;20480;-88
2023/05/22 07:53:28;;;;;;;26.52;24.02;;;19.90;99.90;;;;;;5135221;27;20068;-87
2023/05/22 07:55:53;;;;;;;24.75;22.35;;;20.00;99.90;;;;;;5134751;27;20039;-88
2023/05/22 07:58:19;;;;;;;23.95;21.63;;;20.00;99.90;;;;;;5135263;27;20039;-87
2023/05/22 08:00:45;;;;;;;23.80;21.60;;;20.00;99.90;;;;;;5135176;27;20380;-87
2023/05/22 08:03:10;;;;;;;22.95;20.55;;;20.10;99.90;;;;;;5135349;27;20047;-87
2023/05/22 08:05:36;;;;;;;23.63;21.42;;;20.00;99.90;;;;;;5135407;27;20381;-87
2023/05/22 08:08:03;;;;;;;23.38;21.13;;;20.10;99.90;;;;;;5135250;27;20031;-87
2023/05/22 08:10:29;;;;;;;22.95;20.85;;;20.10;99.90;;;;;;5134743;27;20042;-87
2023/05/22 08:12:54;;;;;;;23.98;21.63;;;20.10;99.90;;;;;;5134909;27;20416;-87
2023/05/22 08:15:20;;;;;;;23.00;20.70;;;20.20;99.90;;;;;;5135722;27;20043;-87
2023/05/22 08:17:45;;;;;;;21.73;19.63;;;20.20;99.90;;;;;;5135125;27;20515;-87
2023/05/22 08:20:11;;;;;;;22.02;19.83;;;20.30;99.90;;;;;;5134818;27;20038;-87
2023/05/22 08:22:40;;;;;;;22.40;20.25;;;20.30;99.90;;;;;;5134896;27;20440;-87
2023/05/22 08:25:06;;;;;;;22.48;20.15;;;20.30;99.90;;;;;;5135015;27;20035;-87
2023/05/22 08:27:32;;;;;;;22.30;20.05;;;20.30;99.90;;;;;;5134735;27;20544;-87
2023/05/22 08:29:57;;;;;;;22.75;20.65;;;20.40;99.90;;;;;;5134571;27;20058;-87
2023/05/22 08:32:23;;;;;;;21.83;19.75;;;20.40;99.90;;;;;;5134874;27;20114;-87
2023/05/22 08:34:49;;;;;;;21.20;19.02;;;20.50;99.90;;;;;;5134674;27;20404;-87
2023/05/22 08:37:14;;;;;;;22.45;20.17;;;20.50;99.90;;;;;;5116438;27;20103;-87
2023/05/22 08:39:40;;;;;;;21.17;18.98;;;20.60;99.90;;;;;;5134191;27;20039;-87
2023/05/22 08:42:06;;;;;;;22.13;18.90;;;20.60;99.90;;;;;;5134401;27;20043;-87
2023/05/22 08:44:32;;;;;;;21.30;19.10;;;20.70;99.90;;;;;;5134263;27;20114;-87
2023/05/22 08:47:03;;;;;;;20.85;18.80;;;20.70;99.90;;;;;;5134479;27;20062;-87
2023/05/22 08:49:29;;;;;;;21.13;18.80;;;20.70;99.90;;;;;;5134041;27;20220;-87
2023/05/22 08:52:02;;;;;;;21.58;19.33;;;20.80;99.90;;;;;;5098848;27;20118;-87
2023/05/22 08:54:28;;;;;;;20.30;18.27;;;20.80;99.90;;;;;;5134427;27;20031;-87
2023/05/22 08:56:54;;;;;;;20.05;17.95;;;20.90;99.90;;;;;;5098735;27;20035;-87
2023/05/22 08:59:20;;;;;;;20.30;18.30;;;20.90;99.90;;;;;;5134348;27;20103;-87
2023/05/22 09:01:46;;;;;;;19.85;17.92;;;21.00;99.90;;;;;;5133857;27;20408;-87
2023/05/22 09:04:12;;;;;;;19.63;17.63;;;21.00;99.90;;;;;;5134109;27;20146;-87
2023/05/22 09:06:38;;;;;;;18.77;16.98;;;21.10;99.90;;;;;;5133906;27;20067;-87
2023/05/22 09:09:04;;;;;;;19.33;17.35;;;21.10;99.90;;;;;;5115636;27;20115;-87
2023/05/22 09:11:30;;;;;;;19.92;17.92;;;21.20;99.90;;;;;;5133589;27;20039;-87
2023/05/22 09:14:09;;;;;;;19.17;17.13;;;21.30;99.90;;;;;;5134124;27;20039;-87
2023/05/22 09:16:50;;;;;;;18.73;16.70;;;21.30;99.90;;;;;;5134154;27;20050;-87
2023/05/22 09:19:15;;;;;;;22.60;17.08;;;21.40;99.90;;;;;;5134302;27;20027;-87
2023/05/22 09:21:43;;;;;;;17.92;15.50;;;21.50;99.90;;;;;;5134019;27;20576;-87
2023/05/22 09:24:09;;;;;;;18.38;16.00;;;21.60;99.90;;;;;;5115261;27;20405;-87
2023/05/22 09:26:38;;;;;;;19.42;16.77;;;21.70;99.90;;;;;;5133709;27;20511;-87
2023/05/22 09:29:06;;;;;;;17.83;16.00;;;21.80;99.90;;;;;;5133450;27;20115;-87
2023/05/22 09:31:39;;;;;;;18.08;16.08;;;21.90;99.90;;;;;;5133415;27;20050;-87
2023/05/22 09:34:06;;;;;;;17.55;15.70;;;22.00;99.90;;;;;;5129953;27;20586;-87
2023/05/22 09:36:34;;;;;;;17.50;15.80;;;22.00;99.90;;;;;;5113034;28;20044;-87
2023/05/22 09:39:00;;;;;;;16.73;15.00;;;22.20;99.90;;;;;;5112955;28;20036;-87
2023/05/22 09:41:29;;;;;;;16.90;15.20;;;22.30;99.90;;;;;;5112508;28;20047;-87
2023/05/22 09:43:55;;;;;;;16.70;15.00;;;22.50;99.90;;;;;;5112795;28;20040;-87
2023/05/22 09:46:20;;;;;;;17.88;15.20;;;22.60;99.90;;;;;;5112921;28;20088;-87
2023/05/22 09:48:53;;;;;;;17.40;14.90;;;22.70;99.90;;;;;;5112589;28;20385;-87
2023/05/22 09:51:25;;;;;;;;;;;22.90;99.90;;;;;;5116086;27;20039;-87
2023/05/22 09:53:57;;;;;;;17.10;15.25;;;23.00;99.90;;;;;;5122776;27;19915;-87
2023/05/22 09:56:25;;;;;;;16.40;14.82;;;23.00;99.90;;;;;;5112854;28;20032;-87
2023/05/22 09:58:51;;;;;;;16.17;14.55;;;23.20;99.90;;;;;;5117779;27;20074;-88
2023/05/22 10:01:20;;;;;;;16.23;13.75;;;23.30;99.90;;;;;;5129232;27;20562;-88
2023/05/22 10:03:47;;;;;;;18.38;15.60;;;23.40;99.90;;;;;;5129792;27;20104;-88
2023/05/22 10:06:15;;;;;;;17.95;16.05;;;23.50;99.90;;;;;;5132983;27;20118;-88
2023/05/22 10:08:44;;;;;;;17.55;15.65;;;23.60;99.90;;;;;;5133172;27;20115;-88
2023/05/22 10:11:10;;;;;;;19.17;15.63;;;23.70;99.90;;;;;;5132419;27;20440;-87
2023/05/22 10:13:36;;;;;;;18.65;15.13;;;23.80;99.90;;;;;;5133130;27;20073;-88
2023/05/22 10:16:03;;;;;;;16.98;14.80;;;23.80;99.70;;;;;;5132641;27;20420;-88
2023/05/22 10:18:30;;;;;;;16.15;14.50;;;23.90;99.40;;;;;;5127763;27;20041;-88
2023/05/22 10:20:58;;;;;;;17.60;15.20;;;23.90;99.60;;;;;;5122581;27;20046;-87
2023/05/22 10:23:24;;;;;;;15.93;13.35;;;24.00;98.10;;;;;;5120374;27;20052;-88
2023/05/22 10:25:50;;;;;;;18.35;16.33;;;24.10;98.70;;;;;;5120004;27;20033;-87
2023/05/22 10:28:29;;;;;;;16.17;14.48;;;24.10;97.30;;;;;;5121753;27;20036;-88
2023/05/22 10:31:25;;;;;;;16.33;14.65;;;24.10;97.30;;;;;;5132470;27;20100;-88
2023/05/22 10:33:59;;;;;;;16.60;14.82;;;24.20;96.00;;;;;;5124964;28;20546;-88
2023/05/22 10:36:48;;;;;;;16.45;14.45;;;24.20;95.20;;;;;;5132911;28;20039;-87
2023/05/22 10:39:39;;;;;;;20.17;15.60;;;24.30;97.00;;;;;;5132548;28;20538;-88
2023/05/22 10:42:10;;;;;;;19.33;15.23;;;24.40;94.20;;;;;;5132795;28;20035;-88
2023/05/22 10:44:35;;;;;;;17.25;14.93;;;24.40;93.90;;;;;;5132605;28;20042;-87
2023/05/22 10:47:12;;;;;;;17.08;13.90;;;24.50;93.70;;;;;;5132687;28;20035;-87
2023/05/22 10:49:43;;;;;;;15.50;13.80;;;24.70;93.80;;;;;;5123121;28;20294;-88
2023/05/22 10:52:09;;;;;;;16.20;14.15;;;24.80;93.10;;;;;;5121113;28;20035;-88
2023/05/22 10:54:42;;;;;;;15.32;13.73;;;25.00;92.30;;;;;;5120496;28;20401;-88
2023/05/22 10:57:17;;;;;;;17.23;14.45;;;25.00;90.90;;;;;;5115012;28;20032;-88
2023/05/22 10:59:46;;;;;;;17.40;15.38;;;25.10;90.90;;;;;;5118694;28;20031;-88
2023/05/22 11:02:28;;;;;;;17.30;14.55;;;25.20;91.00;;;;;;5132379;28;20043;-88
2023/05/22 11:04:54;;;;;;;16.55;14.57;;;25.30;90.30;;;;;;5132698;28;20041;-88
2023/05/22 11:07:20;;;;;;;15.77;13.57;;;25.30;88.80;;;;;;5132365;28;20039;-88
2023/05/22 11:09:47;;;;;;;17.70;15.15;;;25.30;87.60;;;;;;5096544;28;20091;-88
2023/05/22 11:12:27;;;;;;;14.95;13.05;;;25.30;87.20;;;;;;5132433;28;20039;-88
2023/05/22 11:14:52;;;;;;;15.98;12.98;;;25.40;87.70;;;;;;5131384;28;20047;-88
2023/05/22 11:17:45;;;;;;;15.80;13.13;;;25.50;87.90;;;;;;5132433;28;20050;-88
2023/05/22 11:20:19;;;;;;;16.20;14.50;;;25.70;88.90;;;;;;5124831;28;20512;-88
2023/05/22 11:22:59;;;;;;;16.52;14.65;;;25.80;87.00;;;;;;5119011;28;20079;-88
2023/05/22 11:25:27;;;;;;;17.15;15.02;;;25.90;87.80;;;;;;5119245;28;20054;-88
2023/05/22 11:27:53;;;;;;;16.35;14.02;;;26.00;85.50;;;;;;5120670;28;20046;-88
2023/05/22 11:30:23;;;;;;;15.68;13.98;;;26.10;84.30;;;;;;5125948;27;20060;-88
2023/05/22 11:32:49;;;;;;;18.52;16.45;;;26.20;84.30;;;;;;5125577;27;20039;-88
2023/05/22 11:35:17;;;;;;;17.10;15.30;;;26.30;84.70;;;;;;5124152;27;20044;-87
2023/05/22 11:37:43;;;;;;;18.40;16.50;;;26.40;83.70;;;;;;5125917;27;20074;-88
2023/05/22 11:40:10;;;;;;;16.52;14.70;;;26.40;80.90;;;;;;5125221;27;20080;-88
2023/05/22 11:42:36;;;;;;;18.30;15.82;;;26.40;80.20;;;;;;5123925;27;20046;-88
2023/05/22 11:45:03;;;;;;;16.33;14.60;;;26.40;80.90;;;;;;5116121;27;20089;-88
2023/05/22 11:47:29;;;;;;;16.92;15.00;;;26.50;80.30;;;;;;5104535;28;20497;-87
2023/05/22 11:49:59;;;;;;;16.27;14.52;;;26.60;80.20;;;;;;5103269;28;20410;-88
2023/05/22 11:52:32;;;;;;;17.02;15.23;;;26.70;80.20;;;;;;5104830;28;20078;-88
2023/05/22 11:54:58;;;;;;;18.10;15.60;;;26.90;79.70;;;;;;5105406;28;20039;-88
2023/05/22 11:57:24;;;;;;;18.15;15.73;;;27.00;80.60;;;;;;5103957;28;20042;-88
2023/05/22 11:59:50;;;;;;;20.27;15.30;;;26.90;79.70;;;;;;5103589;28;20031;-88
2023/05/22 12:02:17;;;;;;;18.13;16.33;;;27.10;80.00;;;;;;5105018;28;20036;-88
2023/05/22 12:04:42;;;;;;;17.35;15.60;;;27.10;77.50;;;;;;5103558;28;20043;-88
2023/05/22 12:07:08;;;;;;;18.95;16.30;;;27.20;76.90;;;;;;5104123;28;20040;-88
2023/05/22 12:09:34;;;;;;;17.52;14.68;;;27.30;77.90;;;;;;5104722;28;20036;-88
2023/05/22 12:12:00;;;;;;;16.25;14.55;;;27.40;80.00;;;;;;5102894;28;20040;-88
2023/05/22 12:14:27;;;;;;;16.27;14.57;;;27.60;77.80;;;;;;5085389;28;20374;-88
2023/05/22 12:16:53;;;;;;;17.73;14.27;;;27.70;76.70;;;;;;5104779;28;20486;-88
2023/05/22 12:19:20;;;;;;;15.45;13.85;;;27.70;75.40;;;;;;5102663;28;20036;-88
2023/05/22 12:21:48;;;;;;;16.02;14.32;;;27.80;73.80;;;;;;5103723;28;20503;-88
2023/05/22 12:24:14;;;;;;;17.60;15.57;;;27.90;75.20;;;;;;5104786;28;20040;-88
2023/05/22 12:26:40;;;;;;;16.77;14.20;;;28.10;72.70;;;;;;5114312;27;20031;-88
2023/05/22 12:29:06;;;;;;;16.55;14.30;;;28.10;73.10;;;;;;5117463;27;20110;-88
2023/05/22 12:31:36;;;;;;;15.35;13.50;;;28.10;71.10;;;;;;5106787;27;20135;-88